createdAt,value
2016-05-26T00:00:35.824Z,1011.24
2016-05-26T00:01:36.029Z,1011.22
2016-05-26T00:02:35.829Z,1011.21
2016-05-26T00:03:36.019Z,1011.21
2016-05-26T00:04:36.023Z,1011.21
2016-05-26T00:05:36.009Z,1011.2
2016-05-26T00:06:35.809Z,1011.2
2016-05-26T00:07:35.811Z,1011.21
2016-05-26T00:08:36.001Z,1011.16
2016-05-26T00:09:36.004Z,1011.16
2016-05-26T00:10:36.006Z,1011.2
2016-05-26T00:11:35.994Z,1011.22
2016-05-26T00:12:35.996Z,1011.2
2016-05-26T00:13:35.999Z,1011.25
2016-05-26T00:14:35.784Z,1011.24
2016-05-26T00:15:35.989Z,1011.24
2016-05-26T00:16:35.977Z,1011.28
2016-05-26T00:17:35.979Z,1011.25
2016-05-26T00:18:35.763Z,1011.28
2016-05-26T00:19:35.969Z,1011.28
2016-05-26T00:20:35.972Z,1011.26
2016-05-26T00:21:35.958Z,1011.31
2016-05-26T00:22:35.758Z,1011.27
2016-05-26T00:23:35.761Z,1011.26
2016-05-26T00:24:35.763Z,1011.28
2016-05-26T00:25:35.954Z,1011.25
2016-05-26T00:26:35.956Z,1011.24
2016-05-26T00:27:35.943Z,1011.25
2016-05-26T00:28:35.743Z,1011.22
2016-05-26T00:29:35.948Z,1011.18
2016-05-26T00:30:35.935Z,1011.21
2016-05-26T00:31:35.938Z,1011.2
2016-05-26T00:32:35.925Z,1011.21
2016-05-26T00:33:35.928Z,1011.18
2016-05-26T00:34:35.728Z,1011.19
2016-05-26T00:35:35.934Z,1011.18
2016-05-26T00:36:35.921Z,1011.19
2016-05-26T00:37:35.909Z,1011.19
2016-05-26T00:38:35.911Z,1011.18
2016-05-26T00:39:35.710Z,1011.18
2016-05-26T00:40:35.900Z,1011.23
2016-05-26T00:41:35.903Z,1011.2
2016-05-26T00:42:35.703Z,1011.19
2016-05-26T00:43:35.892Z,1011.25
2016-05-26T00:44:35.895Z,1011.22
2016-05-26T00:45:35.694Z,1011.22
2016-05-26T00:46:35.885Z,1011.21
2016-05-26T00:47:35.888Z,1011.21
2016-05-26T00:48:35.688Z,1011.2
2016-05-26T00:49:35.877Z,1011.24
2016-05-26T00:50:35.864Z,1011.22
2016-05-26T00:51:35.867Z,1011.2
2016-05-26T00:52:35.869Z,1011.2
2016-05-26T00:53:35.669Z,1011.21
2016-05-26T00:54:35.860Z,1011.22
2016-05-26T00:55:35.862Z,1011.21
2016-05-26T00:56:35.865Z,1011.2
2016-05-26T00:57:35.649Z,1011.2
2016-05-26T00:58:35.652Z,1011.21
2016-05-26T00:59:35.842Z,1011.2
2016-05-26T01:00:35.641Z,1011.21
2016-05-26T01:01:35.832Z,1011.18
2016-05-26T01:02:35.834Z,1011.19
2016-05-26T01:03:35.837Z,1011.24
2016-05-26T01:04:35.824Z,1011.21
2016-05-26T01:05:35.827Z,1011.2
2016-05-26T01:06:35.829Z,1011.19
2016-05-26T01:07:35.817Z,1011.24
2016-05-26T01:08:35.819Z,1011.23
2016-05-26T01:09:35.603Z,1011.24
2016-05-26T01:10:35.809Z,1011.24
2016-05-26T01:11:35.811Z,1011.25
2016-05-26T01:12:35.596Z,1011.23
2016-05-26T01:13:35.598Z,1011.23
2016-05-26T01:14:35.788Z,1011.22
2016-05-26T01:15:35.791Z,1011.22
2016-05-26T01:16:35.591Z,1011.27
2016-05-26T01:17:35.594Z,1011.21
2016-05-26T01:18:35.783Z,1011.21
2016-05-26T01:19:35.802Z,1011.17
2016-05-26T01:20:35.586Z,1011.21
2016-05-26T01:21:35.777Z,1011.2
2016-05-26T01:22:35.763Z,1011.19
2016-05-26T01:23:35.765Z,1011.21
2016-05-26T01:24:35.566Z,1011.23
2016-05-26T01:25:35.755Z,1011.19
2016-05-26T01:26:35.758Z,1011.19
2016-05-26T01:27:35.760Z,1011.23
2016-05-26T01:28:35.545Z,1011.23
2016-05-26T01:29:35.751Z,1011.21
2016-05-26T01:30:35.753Z,1011.21
2016-05-26T01:31:35.538Z,1011.19
2016-05-26T01:32:35.743Z,1011.18
2016-05-26T01:33:35.730Z,1011.19
2016-05-26T01:34:35.529Z,1011.18
2016-05-26T01:35:35.735Z,1011.19
2016-05-26T01:36:35.723Z,1011.2
2016-05-26T01:37:35.523Z,1011.2
2016-05-26T01:38:35.713Z,1011.18
2016-05-26T01:39:35.715Z,1011.18
2016-05-26T01:40:35.718Z,1011.18
2016-05-26T01:41:35.501Z,1011.19
2016-05-26T01:42:35.723Z,1011.22
2016-05-26T01:43:35.711Z,1011.16
2016-05-26T01:44:35.494Z,1011.19
2016-05-26T01:45:35.700Z,1011.19
2016-05-26T01:46:35.686Z,1011.17
2016-05-26T01:47:35.486Z,1011.2
2016-05-26T01:48:35.692Z,1011.22
2016-05-26T01:49:35.476Z,1011.23
2016-05-26T01:50:35.682Z,1011.25
2016-05-26T01:51:35.669Z,1011.23
2016-05-26T01:52:35.672Z,1011.25
2016-05-26T01:53:35.675Z,1011.28
2016-05-26T01:54:35.458Z,1011.25
2016-05-26T01:55:35.664Z,1011.24
2016-05-26T01:56:35.464Z,1011.24
2016-05-26T01:57:35.655Z,1011.22
2016-05-26T01:58:35.454Z,1011.24
2016-05-26T01:59:35.660Z,1011.25
2016-05-26T02:00:35.646Z,1011.23
2016-05-26T02:01:35.649Z,1011.24
2016-05-26T02:02:35.637Z,1011.24
2016-05-26T02:03:35.435Z,1011.21
2016-05-26T02:04:35.642Z,1011.25
2016-05-26T02:05:35.644Z,1011.27
2016-05-26T02:06:35.429Z,1011.24
2016-05-26T02:07:35.618Z,1011.26
2016-05-26T02:08:35.621Z,1011.25
2016-05-26T02:09:35.623Z,1011.26
2016-05-26T02:10:35.611Z,1011.26
2016-05-26T02:11:35.614Z,1011.27
2016-05-26T02:12:35.397Z,1011.24
2016-05-26T02:13:35.604Z,1011.29
2016-05-26T02:14:35.606Z,1011.3
2016-05-26T02:15:35.592Z,1011.32
2016-05-26T02:16:35.595Z,1011.34
2016-05-26T02:17:36.161Z,1011.36
2016-05-26T02:18:35.586Z,1011.36
2016-05-26T02:19:35.386Z,1011.35
2016-05-26T02:20:35.575Z,1011.31
2016-05-26T02:21:35.578Z,1011.34
2016-05-26T02:22:35.581Z,1011.34
2016-05-26T02:23:35.568Z,1011.35
2016-05-26T02:24:35.571Z,1011.35
2016-05-26T02:25:35.573Z,1011.34
2016-05-26T02:26:35.560Z,1011.34
2016-05-26T02:27:35.360Z,1011.26
2016-05-26T02:28:35.549Z,1011.26
2016-05-26T02:29:35.349Z,1011.26
2016-05-26T02:30:35.555Z,1011.27
2016-05-26T02:31:35.542Z,1011.24
2016-05-26T02:32:35.545Z,1011.27
2016-05-26T02:33:35.548Z,1011.29
2016-05-26T02:34:35.535Z,1011.23
2016-05-26T02:35:35.335Z,1011.27
2016-05-26T02:36:35.321Z,1011.27
2016-05-26T02:37:35.324Z,1011.28
2016-05-26T02:38:35.530Z,1011.31
2016-05-26T02:39:35.314Z,1011.32
2016-05-26T02:40:35.520Z,1011.27
2016-05-26T02:41:35.507Z,1011.27
2016-05-26T02:42:35.509Z,1011.26
2016-05-26T02:43:35.293Z,1011.32
2016-05-26T02:44:35.500Z,1011.25
2016-05-26T02:45:35.502Z,1011.31
2016-05-26T02:46:35.489Z,1011.29
2016-05-26T02:47:35.335Z,1011.28
2016-05-26T02:48:35.494Z,1011.32
2016-05-26T02:49:35.481Z,1011.27
2016-05-26T02:50:35.483Z,1011.31
2016-05-26T02:51:35.533Z,1011.27
2016-05-26T02:52:35.271Z,1011.3
2016-05-26T02:53:35.524Z,1011.31
2016-05-26T02:54:35.464Z,1011.3
2016-05-26T02:55:35.264Z,1011.34
2016-05-26T02:56:35.265Z,1011.34
2016-05-26T02:57:35.253Z,1011.32
2016-05-26T02:58:35.459Z,1011.32
2016-05-26T02:59:35.243Z,1011.33
2016-05-26T03:00:35.449Z,1011.35
2016-05-26T03:01:35.451Z,1011.35
2016-05-26T03:02:35.438Z,1011.37
2016-05-26T03:03:35.238Z,1011.38
2016-05-26T03:04:35.443Z,1011.36
2016-05-26T03:05:35.227Z,1011.38
2016-05-26T03:06:35.230Z,1011.36
2016-05-26T03:07:35.420Z,1011.41
2016-05-26T03:08:35.424Z,1011.38
2016-05-26T03:09:35.426Z,1011.4
2016-05-26T03:10:35.412Z,1011.37
2016-05-26T03:11:35.212Z,1011.37
2016-05-26T03:12:35.403Z,1011.34
2016-05-26T03:13:35.203Z,1011.35
2016-05-26T03:14:35.409Z,1011.33
2016-05-26T03:15:35.395Z,1011.34
2016-05-26T03:16:35.398Z,1011.36
2016-05-26T03:17:35.385Z,1011.32
2016-05-26T03:18:35.387Z,1011.33
2016-05-26T03:19:35.390Z,1011.33
2016-05-26T03:20:35.174Z,1011.32
2016-05-26T03:21:35.177Z,1011.32
2016-05-26T03:22:35.164Z,1011.32
2016-05-26T03:23:35.369Z,1011.31
2016-05-26T03:24:35.153Z,1011.3
2016-05-26T03:25:35.156Z,1011.29
2016-05-26T03:26:35.362Z,1011.33
2016-05-26T03:27:35.161Z,1011.33
2016-05-26T03:28:35.352Z,1011.36
2016-05-26T03:29:35.152Z,1011.37
2016-05-26T03:30:35.341Z,1011.36
2016-05-26T03:31:35.141Z,1011.36
2016-05-26T03:32:35.347Z,1011.37
2016-05-26T03:33:35.335Z,1011.4
2016-05-26T03:34:35.337Z,1011.37
2016-05-26T03:35:35.323Z,1011.41
2016-05-26T03:36:35.140Z,1011.39
2016-05-26T03:37:35.329Z,1011.41
2016-05-26T03:38:35.316Z,1011.39
2016-05-26T03:39:35.115Z,1011.38
2016-05-26T03:40:35.306Z,1011.38
2016-05-26T03:41:35.309Z,1011.42
2016-05-26T03:42:35.311Z,1011.42
2016-05-26T03:43:35.298Z,1011.46
2016-05-26T03:44:35.301Z,1011.44
2016-05-26T03:45:35.288Z,1011.42
2016-05-26T03:46:35.306Z,1011.46
2016-05-26T03:47:35.294Z,1011.49
2016-05-26T03:48:35.281Z,1011.46
2016-05-26T03:49:35.284Z,1011.51
2016-05-26T03:50:35.083Z,1011.5
2016-05-26T03:51:35.070Z,1011.51
2016-05-26T03:52:35.275Z,1011.5
2016-05-26T03:53:35.263Z,1011.56
2016-05-26T03:54:35.266Z,1011.55
2016-05-26T03:55:35.269Z,1011.55
2016-05-26T03:56:35.271Z,1011.57
2016-05-26T03:57:35.055Z,1011.56
2016-05-26T03:58:35.244Z,1011.61
2016-05-26T03:59:35.247Z,1011.57
2016-05-26T04:00:35.047Z,1011.58
2016-05-26T04:01:35.035Z,1011.59
2016-05-26T04:02:35.037Z,1011.62
2016-05-26T04:03:35.024Z,1011.58
2016-05-26T04:04:35.230Z,1011.58
2016-05-26T04:05:35.218Z,1011.55
2016-05-26T04:06:35.220Z,1011.58
2016-05-26T04:07:35.223Z,1011.54
2016-05-26T04:08:35.210Z,1011.53
2016-05-26T04:09:35.212Z,1011.56
2016-05-26T04:10:35.012Z,1011.55
2016-05-26T04:11:35.201Z,1011.56
2016-05-26T04:12:34.986Z,1011.57
2016-05-26T04:13:35.192Z,1011.55
2016-05-26T04:14:35.195Z,1011.57
2016-05-26T04:15:35.181Z,1011.6
2016-05-26T04:16:35.184Z,1011.58
2016-05-26T04:17:35.717Z,1011.6
2016-05-26T04:18:35.174Z,1011.58
2016-05-26T04:19:34.974Z,1011.58
2016-05-26T04:20:35.163Z,1011.6
2016-05-26T04:21:34.963Z,1011.63
2016-05-26T04:22:35.169Z,1011.62
2016-05-26T04:23:35.156Z,1011.63
2016-05-26T04:24:35.144Z,1011.62
2016-05-26T04:25:34.942Z,1011.61
2016-05-26T04:26:35.149Z,1011.61
2016-05-26T04:27:34.933Z,1011.64
2016-05-26T04:28:34.935Z,1011.68
2016-05-26T04:29:35.141Z,1011.68
2016-05-26T04:30:34.925Z,1011.66
2016-05-26T04:31:35.130Z,1011.66
2016-05-26T04:32:34.930Z,1011.71
2016-05-26T04:33:35.121Z,1011.7
2016-05-26T04:34:35.154Z,1011.73
2016-05-26T04:35:35.126Z,1011.7
2016-05-26T04:36:35.112Z,1011.76
2016-05-26T04:37:34.913Z,1011.73
2016-05-26T04:38:34.900Z,1011.75
2016-05-26T04:39:34.902Z,1011.78
2016-05-26T04:40:34.905Z,1011.77
2016-05-26T04:41:35.095Z,1011.75
2016-05-26T04:42:34.879Z,1011.82
2016-05-26T04:43:35.085Z,1011.8
2016-05-26T04:44:34.884Z,1011.81
2016-05-26T04:45:35.090Z,1011.8
2016-05-26T04:46:34.874Z,1011.84
2016-05-26T04:47:35.080Z,1011.83
2016-05-26T04:48:34.864Z,1011.83
2016-05-26T04:49:34.867Z,1011.87
2016-05-26T04:50:34.853Z,1011.85
2016-05-26T04:51:35.059Z,1011.86
2016-05-26T04:52:34.859Z,1011.87
2016-05-26T04:53:35.050Z,1011.85
2016-05-26T04:54:34.850Z,1011.84
2016-05-26T04:55:34.835Z,1011.87
2016-05-26T04:56:35.042Z,1011.88
2016-05-26T04:57:35.045Z,1011.86
2016-05-26T04:58:34.828Z,1011.87
2016-05-26T04:59:34.831Z,1011.83
2016-05-26T05:00:35.021Z,1011.8
2016-05-26T05:01:35.024Z,1011.84
2016-05-26T05:02:34.808Z,1011.82
2016-05-26T05:03:34.810Z,1011.81
2016-05-26T05:04:34.797Z,1011.83
2016-05-26T05:05:35.003Z,1011.83
2016-05-26T05:06:34.802Z,1011.83
2016-05-26T05:07:34.806Z,1011.81
2016-05-26T05:08:34.793Z,1011.8
2016-05-26T05:09:34.998Z,1011.78
2016-05-26T05:10:34.985Z,1011.81
2016-05-26T05:11:34.988Z,1011.8
2016-05-26T05:12:34.976Z,1011.77
2016-05-26T05:13:34.979Z,1011.8
2016-05-26T05:14:34.762Z,1011.79
2016-05-26T05:15:34.968Z,1011.76
2016-05-26T05:16:34.971Z,1011.81
2016-05-26T05:17:34.957Z,1011.8
2016-05-26T05:18:35.241Z,1011.84
2016-05-26T05:19:34.947Z,1011.82
2016-05-26T05:20:34.950Z,1011.89
2016-05-26T05:21:34.953Z,1011.9
2016-05-26T05:22:34.939Z,1011.88
2016-05-26T05:23:34.943Z,1011.89
2016-05-26T05:24:34.726Z,1011.89
2016-05-26T05:25:34.932Z,1011.91
2016-05-26T05:26:34.731Z,1011.9
2016-05-26T05:27:34.922Z,1011.9
2016-05-26T05:28:34.722Z,1011.9
2016-05-26T05:29:34.928Z,1011.94
2016-05-26T05:30:34.727Z,1011.92
2016-05-26T05:31:34.917Z,1011.91
2016-05-26T05:32:34.905Z,1011.97
2016-05-26T05:33:34.735Z,1011.95
2016-05-26T05:34:34.894Z,1011.94
2016-05-26T05:35:34.897Z,1011.94
2016-05-26T05:36:34.696Z,1012
2016-05-26T05:37:34.886Z,1011.96
2016-05-26T05:38:34.685Z,1011.99
2016-05-26T05:39:34.876Z,1012.02
2016-05-26T05:40:34.879Z,1012
2016-05-26T05:41:34.882Z,1011.98
2016-05-26T05:42:34.665Z,1011.95
2016-05-26T05:43:34.871Z,1011.97
2016-05-26T05:44:34.858Z,1011.94
2016-05-26T05:45:34.861Z,1012
2016-05-26T05:46:34.660Z,1012.01
2016-05-26T05:47:34.898Z,1011.93
2016-05-26T05:48:34.651Z,1011.96
2016-05-26T05:49:34.840Z,1011.99
2016-05-26T05:50:34.843Z,1011.98
2016-05-26T05:51:34.846Z,1011.96
2016-05-26T05:52:34.630Z,1011.97
2016-05-26T05:53:34.975Z,1012.01
2016-05-26T05:54:34.838Z,1012.01
2016-05-26T05:55:34.825Z,1012.04
2016-05-26T05:56:34.828Z,1012.05
2016-05-26T05:57:34.611Z,1012.04
2016-05-26T05:58:34.614Z,1012.06
2016-05-26T05:59:34.602Z,1012.04
2016-05-26T06:00:34.604Z,1012.04
2016-05-26T06:01:34.608Z,1012.02
2016-05-26T06:02:34.953Z,1012.02
2016-05-26T06:03:34.597Z,1012.02
2016-05-26T06:04:34.584Z,1012.01
2016-05-26T06:05:34.790Z,1012.01
2016-05-26T06:06:34.574Z,1012.04
2016-05-26T06:07:34.779Z,1012.01
2016-05-26T06:08:34.782Z,1011.99
2016-05-26T06:09:34.769Z,1012.01
2016-05-26T06:10:34.569Z,1012
2016-05-26T06:11:34.774Z,1012.02
2016-05-26T06:12:34.762Z,1012.01
2016-05-26T06:13:34.765Z,1012.02
2016-05-26T06:14:34.751Z,1012.01
2016-05-26T06:15:34.754Z,1012.03
2016-05-26T06:16:34.756Z,1012.06
2016-05-26T06:17:34.540Z,1012.08
2016-05-26T06:18:35.013Z,1012.09
2016-05-26T06:19:34.734Z,1012.05
2016-05-26T06:20:34.534Z,1012.06
2016-05-26T06:21:34.520Z,1012.05
2016-05-26T06:22:34.523Z,1012.08
2016-05-26T06:23:34.729Z,1012.1
2016-05-26T06:24:34.716Z,1012.12
2016-05-26T06:25:34.719Z,1012.1
2016-05-26T06:26:34.706Z,1012.12
2016-05-26T06:27:34.708Z,1012.12
2016-05-26T06:28:34.695Z,1012.12
2016-05-26T06:29:34.698Z,1012.16
2016-05-26T06:30:34.700Z,1012.12
2016-05-26T06:31:34.688Z,1012.16
2016-05-26T06:32:34.488Z,1012.16
2016-05-26T06:33:34.677Z,1012.16
2016-05-26T06:34:34.477Z,1012.24
2016-05-26T06:35:34.479Z,1012.22
2016-05-26T06:36:34.669Z,1012.22
2016-05-26T06:37:34.673Z,1012.24
2016-05-26T06:38:34.660Z,1012.22
2016-05-26T06:39:34.663Z,1012.22
2016-05-26T06:40:34.649Z,1012.23
2016-05-26T06:41:34.449Z,1012.2
2016-05-26T06:42:34.452Z,1012.21
2016-05-26T06:43:34.439Z,1012.22
2016-05-26T06:44:34.645Z,1012.28
2016-05-26T06:45:34.444Z,1012.23
2016-05-26T06:46:34.432Z,1012.26
2016-05-26T06:47:34.434Z,1012.26
2016-05-26T06:48:34.624Z,1012.29
2016-05-26T06:49:34.626Z,1012.28
2016-05-26T06:50:34.426Z,1012.27
2016-05-26T06:51:34.617Z,1012.29
2016-05-26T06:52:34.620Z,1012.28
2016-05-26T06:53:34.606Z,1012.29
2016-05-26T06:54:34.405Z,1012.29
2016-05-26T06:55:34.612Z,1012.29
2016-05-26T06:56:34.395Z,1012.31
2016-05-26T06:57:34.601Z,1012.29
2016-05-26T06:58:34.386Z,1012.32
2016-05-26T06:59:34.591Z,1012.34
2016-05-26T07:00:34.375Z,1012.34
2016-05-26T07:01:34.581Z,1012.32
2016-05-26T07:02:34.381Z,1012.33
2016-05-26T07:03:34.367Z,1012.32
2016-05-26T07:04:34.370Z,1012.33
2016-05-26T07:05:34.561Z,1012.34
2016-05-26T07:06:34.360Z,1012.34
2016-05-26T07:07:34.566Z,1012.35
2016-05-26T07:08:34.552Z,1012.37
2016-05-26T07:09:34.352Z,1012.38
2016-05-26T07:10:34.340Z,1012.37
2016-05-26T07:11:34.342Z,1012.33
2016-05-26T07:12:34.345Z,1012.37
2016-05-26T07:13:34.535Z,1012.39
2016-05-26T07:14:34.335Z,1012.38
2016-05-26T07:15:34.321Z,1012.38
2016-05-26T07:16:34.527Z,1012.38
2016-05-26T07:17:34.311Z,1012.33
2016-05-26T07:18:34.518Z,1012.34
2016-05-26T07:19:34.521Z,1012.36
2016-05-26T07:20:34.320Z,1012.37
2016-05-26T07:21:34.307Z,1012.33
2016-05-26T07:22:34.512Z,1012.32
2016-05-26T07:23:34.296Z,1012.33
2016-05-26T07:24:34.299Z,1012.33
2016-05-26T07:25:34.489Z,1012.34
2016-05-26T07:26:34.289Z,1012.32
2016-05-26T07:27:34.479Z,1012.29
2016-05-26T07:28:34.481Z,1012.29
2016-05-26T07:29:34.281Z,1012.3
2016-05-26T07:30:34.283Z,1012.3
2016-05-26T07:31:34.474Z,1012.29
2016-05-26T07:32:34.477Z,1012.33
2016-05-26T07:33:34.745Z,1012.31
2016-05-26T07:34:34.466Z,1012.3
2016-05-26T07:35:34.453Z,1012.26
2016-05-26T07:36:34.252Z,1012.27
2016-05-26T07:37:34.270Z,1012.32
2016-05-26T07:38:34.283Z,1012.28
2016-05-26T07:39:34.294Z,1012.3
2016-05-26T07:40:34.525Z,1012.33
2016-05-26T07:41:34.349Z,1012.32
2016-05-26T07:42:34.571Z,1012.32
2016-05-26T07:43:34.364Z,1012.31
2016-05-26T07:44:34.360Z,1012.35
2016-05-26T07:45:34.371Z,1012.31
2016-05-26T07:46:34.367Z,1012.34
2016-05-26T07:47:34.579Z,1012.3
2016-05-26T07:48:34.381Z,1012.32
2016-05-26T07:49:34.576Z,1012.33
2016-05-26T07:50:34.379Z,1012.3
2016-05-26T07:51:34.588Z,1012.28
2016-05-26T07:52:34.374Z,1012.3
2016-05-26T07:53:34.581Z,1012.3
2016-05-26T07:54:34.584Z,1012.28
2016-05-26T07:55:34.370Z,1012.29
2016-05-26T07:56:34.374Z,1012.27
2016-05-26T07:57:34.565Z,1012.29
2016-05-26T07:58:34.567Z,1012.29
2016-05-26T07:59:34.352Z,1012.28
2016-05-26T08:00:34.574Z,1012.27
2016-05-26T08:01:34.357Z,1012.33
2016-05-26T08:02:34.345Z,1012.28
2016-05-26T08:03:34.597Z,1012.3
2016-05-26T08:04:34.538Z,1012.35
2016-05-26T08:05:34.541Z,1012.36
2016-05-26T08:06:34.544Z,1012.38
2016-05-26T08:07:34.530Z,1012.36
2016-05-26T08:08:34.329Z,1012.35
2016-05-26T08:09:34.521Z,1012.31
2016-05-26T08:10:34.321Z,1012.3
2016-05-26T08:11:34.541Z,1012.29
2016-05-26T08:12:34.513Z,1012.27
2016-05-26T08:13:34.515Z,1012.26
2016-05-26T08:14:34.502Z,1012.26
2016-05-26T08:15:34.505Z,1012.26
2016-05-26T08:16:34.305Z,1012.27
2016-05-26T08:17:34.292Z,1012.25
2016-05-26T08:18:34.497Z,1012.26
2016-05-26T08:19:34.501Z,1012.25
2016-05-26T08:20:34.487Z,1012.26
2016-05-26T08:21:34.490Z,1012.27
2016-05-26T08:22:34.477Z,1012.25
2016-05-26T08:23:34.480Z,1012.24
2016-05-26T08:24:34.279Z,1012.24
2016-05-26T08:25:34.266Z,1012.24
2016-05-26T08:26:34.269Z,1012.22
2016-05-26T08:27:34.256Z,1012.18
2016-05-26T08:28:34.461Z,1012.17
2016-05-26T08:29:34.449Z,1012.19
2016-05-26T08:30:34.452Z,1012.18
2016-05-26T08:31:34.251Z,1012.17
2016-05-26T08:32:34.238Z,1012.16
2016-05-26T08:33:34.445Z,1012.16
2016-05-26T08:34:34.243Z,1012.19
2016-05-26T08:35:34.230Z,1012.18
2016-05-26T08:36:34.233Z,1012.17
2016-05-26T08:37:34.439Z,1012.19
2016-05-26T08:38:34.427Z,1012.18
2016-05-26T08:39:34.430Z,1012.18
2016-05-26T08:40:34.415Z,1012.16
2016-05-26T08:41:34.419Z,1012.18
2016-05-26T08:42:34.219Z,1012.17
2016-05-26T08:43:34.409Z,1012.18
2016-05-26T08:44:34.208Z,1012.2
2016-05-26T08:45:34.195Z,1012.18
2016-05-26T08:46:34.401Z,1012.15
2016-05-26T08:47:34.201Z,1012.17
2016-05-26T08:48:34.407Z,1012.21
2016-05-26T08:49:34.190Z,1012.16
2016-05-26T08:50:34.396Z,1012.18
2016-05-26T08:51:34.196Z,1012.15
2016-05-26T08:52:34.386Z,1012.15
2016-05-26T08:53:34.186Z,1012.18
2016-05-26T08:54:34.375Z,1012.16
2016-05-26T08:55:34.378Z,1012.16
2016-05-26T08:56:34.178Z,1012.17
2016-05-26T08:57:34.368Z,1012.18
2016-05-26T08:58:34.370Z,1012.19
2016-05-26T08:59:34.170Z,1012.19
2016-05-26T09:00:34.158Z,1012.18
2016-05-26T09:01:34.160Z,1012.17
2016-05-26T09:02:34.147Z,1012.19
2016-05-26T09:03:34.353Z,1012.19
2016-05-26T09:04:34.355Z,1012.21
2016-05-26T09:05:34.139Z,1012.22
2016-05-26T09:06:34.346Z,1012.22
2016-05-26T09:07:34.144Z,1012.18
2016-05-26T09:08:34.351Z,1012.21
2016-05-26T09:09:34.338Z,1012.18
2016-05-26T09:10:34.137Z,1012.13
2016-05-26T09:11:34.327Z,1012.14
2016-05-26T09:12:34.127Z,1012.17
2016-05-26T09:13:34.114Z,1012.15
2016-05-26T09:14:34.320Z,1012.15
2016-05-26T09:15:34.323Z,1012.14
2016-05-26T09:16:34.310Z,1012.15
2016-05-26T09:17:34.109Z,1012.14
2016-05-26T09:18:34.315Z,1012.17
2016-05-26T09:19:34.099Z,1012.15
2016-05-26T09:20:34.101Z,1012.21
2016-05-26T09:21:34.307Z,1012.22
2016-05-26T09:22:34.295Z,1012.21
2016-05-26T09:23:34.095Z,1012.18
2016-05-26T09:24:34.285Z,1012.18
2016-05-26T09:25:34.083Z,1012.18
2016-05-26T09:26:34.087Z,1012.19
2016-05-26T09:27:34.073Z,1012.12
2016-05-26T09:28:34.076Z,1012.15
2016-05-26T09:29:34.079Z,1012.18
2016-05-26T09:30:34.082Z,1012.17
2016-05-26T09:31:34.272Z,1012.19
2016-05-26T09:32:34.275Z,1012.18
2016-05-26T09:33:34.075Z,1012.15
2016-05-26T09:34:34.264Z,1012.14
2016-05-26T09:35:34.064Z,1012.18
2016-05-26T09:36:34.051Z,1012.17
2016-05-26T09:37:34.257Z,1012.13
2016-05-26T09:38:34.244Z,1012.18
2016-05-26T09:39:34.247Z,1012.2
2016-05-26T09:40:34.046Z,1012.16
2016-05-26T09:41:34.252Z,1012.19
2016-05-26T09:42:34.239Z,1012.13
2016-05-26T09:43:34.241Z,1012.14
2016-05-26T09:44:34.041Z,1012.14
2016-05-26T09:45:34.029Z,1012.12
2016-05-26T09:46:34.235Z,1012.11
2016-05-26T09:47:34.018Z,1012.13
2016-05-26T09:48:34.224Z,1012.12
2016-05-26T09:49:34.024Z,1012.13
2016-05-26T09:50:34.229Z,1012.13
2016-05-26T09:51:34.013Z,1012.12
2016-05-26T09:52:34.015Z,1012.15
2016-05-26T09:53:34.207Z,1012.16
2016-05-26T09:54:34.006Z,1012.13
2016-05-26T09:55:34.212Z,1012.14
2016-05-26T09:56:34.011Z,1012.15
2016-05-26T09:57:34.201Z,1012.15
2016-05-26T09:58:34.001Z,1012.18
2016-05-26T09:59:34.207Z,1012.17
2016-05-26T10:00:33.991Z,1012.18
2016-05-26T10:01:33.994Z,1012.17
2016-05-26T10:02:33.980Z,1012.15
2016-05-26T10:03:34.389Z,1012.12
2016-05-26T10:04:33.986Z,1012.14
2016-05-26T10:05:34.176Z,1012.09
2016-05-26T10:06:34.178Z,1012.11
2016-05-26T10:07:34.181Z,1012.14
2016-05-26T10:08:34.169Z,1012.11
2016-05-26T10:09:33.968Z,1012.12
2016-05-26T10:10:33.971Z,1012.12
2016-05-26T10:11:33.958Z,1012.16
2016-05-26T10:12:33.961Z,1012.15
2016-05-26T10:13:33.963Z,1012.19
2016-05-26T10:14:33.950Z,1012.18
2016-05-26T10:15:34.157Z,1012.13
2016-05-26T10:16:33.955Z,1012.13
2016-05-26T10:17:34.161Z,1012.12
2016-05-26T10:18:34.149Z,1012.13
2016-05-26T10:19:33.948Z,1012.13
2016-05-26T10:20:33.935Z,1012.14
2016-05-26T10:21:34.140Z,1012.14
2016-05-26T10:22:33.940Z,1012.14
2016-05-26T10:23:33.943Z,1012.12
2016-05-26T10:24:33.931Z,1012.13
2016-05-26T10:25:34.136Z,1012.11
2016-05-26T10:26:34.139Z,1012.13
2016-05-26T10:27:34.126Z,1012.08
2016-05-26T10:28:33.926Z,1012.06
2016-05-26T10:29:34.131Z,1012.11
2016-05-26T10:30:33.915Z,1012.07
2016-05-26T10:31:34.120Z,1012.07
2016-05-26T10:32:34.123Z,1012.08
2016-05-26T10:33:33.908Z,1012.12
2016-05-26T10:34:34.113Z,1012.07
2016-05-26T10:35:33.913Z,1012.11
2016-05-26T10:36:34.118Z,1012.08
2016-05-26T10:37:33.903Z,1012.14
2016-05-26T10:38:34.108Z,1012.11
2016-05-26T10:39:34.111Z,1012.13
2016-05-26T10:40:33.895Z,1012.17
2016-05-26T10:41:34.101Z,1012.16
2016-05-26T10:42:33.885Z,1012.17
2016-05-26T10:43:34.090Z,1012.19
2016-05-26T10:44:34.093Z,1012.19
2016-05-26T10:45:33.894Z,1012.24
2016-05-26T10:46:34.083Z,1012.24
2016-05-26T10:47:33.883Z,1012.25
2016-05-26T10:48:34.245Z,1012.28
2016-05-26T10:49:33.873Z,1012.28
2016-05-26T10:50:34.093Z,1012.26
2016-05-26T10:51:34.082Z,1012.27
2016-05-26T10:52:34.068Z,1012.26
2016-05-26T10:53:34.071Z,1012.24
2016-05-26T10:54:34.073Z,1012.27
2016-05-26T10:55:34.076Z,1012.26
2016-05-26T10:56:33.859Z,1012.25
2016-05-26T10:57:33.862Z,1012.27
2016-05-26T10:58:34.053Z,1012.27
2016-05-26T10:59:34.056Z,1012.3
2016-05-26T11:00:34.058Z,1012.29
2016-05-26T11:01:33.858Z,1012.31
2016-05-26T11:02:33.845Z,1012.29
2016-05-26T11:03:33.863Z,1012.25
2016-05-26T11:04:33.850Z,1012.25
2016-05-26T11:05:33.837Z,1012.25
2016-05-26T11:06:34.044Z,1012.24
2016-05-26T11:07:33.842Z,1012.29
2016-05-26T11:08:34.049Z,1012.29
2016-05-26T11:09:34.036Z,1012.27
2016-05-26T11:10:34.038Z,1012.26
2016-05-26T11:11:33.838Z,1012.27
2016-05-26T11:12:33.825Z,1012.2
2016-05-26T11:13:34.030Z,1012.22
2016-05-26T11:14:34.033Z,1012.21
2016-05-26T11:15:34.035Z,1012.23
2016-05-26T11:16:33.835Z,1012.25
2016-05-26T11:17:34.026Z,1012.3
2016-05-26T11:18:34.263Z,1012.26
2016-05-26T11:19:34.016Z,1012.27
2016-05-26T11:20:34.018Z,1012.28
2016-05-26T11:21:33.818Z,1012.29
2016-05-26T11:22:34.024Z,1012.27
2016-05-26T11:23:34.026Z,1012.27
2016-05-26T11:24:34.013Z,1012.3
2016-05-26T11:25:33.813Z,1012.28
2016-05-26T11:26:33.800Z,1012.27
2016-05-26T11:27:33.803Z,1012.27
2016-05-26T11:28:34.008Z,1012.25
2016-05-26T11:29:34.012Z,1012.28
2016-05-26T11:30:33.998Z,1012.27
2016-05-26T11:31:34.048Z,1012.27
2016-05-26T11:32:33.784Z,1012.28
2016-05-26T11:33:33.803Z,1012.25
2016-05-26T11:34:33.994Z,1012.25
2016-05-26T11:35:33.997Z,1012.23
2016-05-26T11:36:33.983Z,1012.24
2016-05-26T11:37:33.783Z,1012.22
2016-05-26T11:38:33.989Z,1012.22
2016-05-26T11:39:33.788Z,1012.21
2016-05-26T11:40:33.978Z,1012.25
2016-05-26T11:41:33.778Z,1012.22
2016-05-26T11:42:33.984Z,1012.24
2016-05-26T11:43:33.971Z,1012.24
2016-05-26T11:44:33.771Z,1012.24
2016-05-26T11:45:33.991Z,1012.26
2016-05-26T11:46:34.229Z,1012.24
2016-05-26T11:47:34.216Z,1012.27
2016-05-26T11:48:33.766Z,1012.26
2016-05-26T11:49:33.971Z,1012.24
2016-05-26T11:50:33.958Z,1012.25
2016-05-26T11:51:33.961Z,1012.26
2016-05-26T11:52:33.964Z,1012.29
2016-05-26T11:53:33.763Z,1012.27
2016-05-26T11:54:33.954Z,1012.27
2016-05-26T11:55:33.971Z,1012.29
2016-05-26T11:56:33.960Z,1012.25
2016-05-26T11:57:34.149Z,1012.29
2016-05-26T11:58:33.964Z,1012.25
2016-05-26T11:59:34.140Z,1012.25
2016-05-26T12:00:33.860Z,1012.25
2016-05-26T12:01:33.956Z,1012.26
2016-05-26T12:02:33.944Z,1012.23
2016-05-26T12:03:34.228Z,1012.2
2016-05-26T12:04:34.090Z,1012.24
2016-05-26T12:05:34.327Z,1012.21
2016-05-26T12:06:34.080Z,1012.2
2016-05-26T12:07:33.973Z,1012.2
2016-05-26T12:08:33.913Z,1012.23